createdAt,value
2023-12-22T00:02:46.541Z,84.39
2023-12-22T00:05:49.595Z,84.24
2023-12-22T00:08:52.778Z,84.17
2023-12-22T00:11:55.857Z,84.26
2023-12-22T00:14:58.890Z,83.93
2023-12-22T00:18:01.919Z,83.69
2023-12-22T00:21:05.316Z,83.60
2023-12-22T00:24:08.454Z,83.50
2023-12-22T00:27:11.509Z,83.56
2023-12-22T00:30:15.318Z,83.93
2023-12-22T00:33:18.432Z,84.08
2023-12-22T00:36:25.488Z,84.41
2023-12-22T00:39:28.665Z,84.60
2023-12-22T00:42:31.667Z,84.50
2023-12-22T00:45:34.610Z,84.47
2023-12-22T00:48:37.745Z,84.40
2023-12-22T00:51:40.916Z,84.22
2023-12-22T00:54:44.003Z,84.16
2023-12-22T00:57:47.339Z,84.13
2023-12-22T01:00:50.577Z,84.43
2023-12-22T01:03:53.700Z,84.57
2023-12-22T01:06:56.884Z,84.35
2023-12-22T01:10:04.895Z,84.04
2023-12-22T01:13:08.262Z,83.97
2023-12-22T01:16:11.911Z,83.51
2023-12-22T01:19:15.071Z,83.14
2023-12-22T01:22:18.387Z,82.57
2023-12-22T01:25:21.803Z,82.41
2023-12-22T01:28:25.992Z,82.42
2023-12-22T01:31:29.431Z,82.35
2023-12-22T01:34:33.265Z,82.12
2023-12-22T01:37:39.227Z,82.04
2023-12-22T01:40:42.591Z,82.10
2023-12-22T01:43:45.917Z,82.04
2023-12-22T01:46:51.136Z,82.22
2023-12-22T01:49:54.665Z,82.35
2023-12-22T01:52:58.062Z,82.27
2023-12-22T01:56:06.170Z,82.58
2023-12-22T01:59:10.028Z,83.09
2023-12-22T02:02:13.434Z,83.14
2023-12-22T02:05:16.550Z,83.47
2023-12-22T02:08:20.070Z,83.59
2023-12-22T02:11:23.170Z,83.72
2023-12-22T02:14:26.765Z,83.72
2023-12-22T02:17:41.850Z,83.24
2023-12-22T02:20:45.544Z,83.16
2023-12-22T02:23:49.167Z,82.66
2023-12-22T02:26:52.970Z,82.74
2023-12-22T02:30:07.579Z,82.94
2023-12-22T02:33:12.344Z,82.97
2023-12-22T02:36:18.054Z,83.06
2023-12-22T02:39:22.051Z,83.11
2023-12-22T02:42:31.177Z,83.38
2023-12-22T02:45:34.580Z,83.30
2023-12-22T02:48:37.813Z,83.46
2023-12-22T02:51:41.132Z,83.35
2023-12-22T02:55:04.534Z,83.35
2023-12-22T02:58:07.830Z,83.30
2023-12-22T03:01:33.744Z,83.41
2023-12-22T03:04:37.124Z,83.41
2023-12-22T03:07:40.166Z,83.24
2023-12-22T03:10:43.196Z,83.19
2023-12-22T03:13:47.201Z,82.85
2023-12-22T03:16:50.099Z,82.79
2023-12-22T03:19:53.102Z,82.50
2023-12-22T03:22:56.020Z,82.49
2023-12-22T03:25:58.941Z,82.41
2023-12-22T03:29:01.864Z,82.13
2023-12-22T03:32:05.210Z,82.06
2023-12-22T03:35:08.239Z,82.08
2023-12-22T03:38:11.214Z,81.99
2023-12-22T03:41:14.451Z,81.90
2023-12-22T03:44:17.350Z,81.99
2023-12-22T03:47:20.263Z,82.25
2023-12-22T03:50:23.214Z,82.34
2023-12-22T03:53:26.068Z,82.34
2023-12-22T03:56:28.907Z,82.26
2023-12-22T03:59:31.742Z,82.38
2023-12-22T04:02:34.728Z,82.52
2023-12-22T04:05:38.224Z,82.24
2023-12-22T04:08:41.128Z,81.57
2023-12-22T04:11:44.004Z,81.10
2023-12-22T04:14:46.883Z,80.65
2023-12-22T04:17:51.020Z,80.25
2023-12-22T04:20:56.524Z,79.72
2023-12-22T04:24:20.734Z,79.89
2023-12-22T04:27:23.662Z,79.74
2023-12-22T04:30:29.960Z,79.06
2023-12-22T04:33:34.185Z,79.02
2023-12-22T04:36:37.333Z,79.23
2023-12-22T04:39:40.182Z,78.89
2023-12-22T04:42:43.426Z,78.88
2023-12-22T04:45:46.249Z,78.83
2023-12-22T04:48:49.194Z,78.30
2023-12-22T04:51:52.079Z,78.47
2023-12-22T04:54:55.741Z,78.55
2023-12-22T04:57:58.720Z,78.35
2023-12-22T05:01:01.694Z,77.95
2023-12-22T05:04:04.710Z,77.54
2023-12-22T05:07:08.277Z,77.32
2023-12-22T05:10:11.197Z,77.77
2023-12-22T05:13:14.052Z,77.50
2023-12-22T05:16:17.478Z,77.71
2023-12-22T05:19:20.500Z,77.49
2023-12-22T05:22:23.462Z,77.53
2023-12-22T05:25:26.308Z,77.36
2023-12-22T05:28:29.233Z,77.32
2023-12-22T05:31:34.084Z,77.28
2023-12-22T05:34:38.227Z,77.13
2023-12-22T05:37:41.166Z,77.24
2023-12-22T05:40:44.114Z,77.19
2023-12-22T05:43:47.060Z,77.25
2023-12-22T05:46:49.997Z,77.69
2023-12-22T05:49:53.026Z,78.11
2023-12-22T05:52:56.053Z,78.42
2023-12-22T05:55:59.150Z,78.79
2023-12-22T05:59:02.294Z,79.07
2023-12-22T06:02:05.254Z,79.48
2023-12-22T06:05:08.626Z,79.68
2023-12-22T06:08:11.615Z,79.64
2023-12-22T06:11:15.216Z,80.21
2023-12-22T06:14:18.215Z,80.74
2023-12-22T06:17:21.107Z,81.06
2023-12-22T06:20:23.966Z,81.16
2023-12-22T06:23:26.840Z,81.48
2023-12-22T06:26:29.667Z,83.21
2023-12-22T06:29:32.894Z,83.69
2023-12-22T06:32:35.958Z,83.86
2023-12-22T06:35:39.010Z,84.33
2023-12-22T06:38:43.046Z,83.88
2023-12-22T06:41:45.890Z,83.91
2023-12-22T06:44:48.727Z,83.68
2023-12-22T06:47:51.908Z,84.99
2023-12-22T06:50:55.008Z,85.27
2023-12-22T06:53:58.716Z,84.95
2023-12-22T06:57:02.022Z,85.15
2023-12-22T07:00:06.135Z,85.33
2023-12-22T07:03:09.372Z,85.66
2023-12-22T07:06:12.744Z,86.34
2023-12-22T07:09:15.697Z,86.42
2023-12-22T07:12:18.826Z,86.63
2023-12-22T07:15:22.598Z,87.02
2023-12-22T07:18:26.630Z,87.51
2023-12-22T07:21:29.717Z,87.17
2023-12-22T07:24:32.591Z,86.55
2023-12-22T07:27:35.454Z,85.90
2023-12-22T07:30:38.385Z,85.54
2023-12-22T07:33:41.860Z,85.00
2023-12-22T07:36:51.017Z,84.53
2023-12-22T07:39:59.169Z,84.11
2023-12-22T07:43:02.398Z,83.80
2023-12-22T07:46:05.266Z,83.09
2023-12-22T07:49:08.311Z,82.70
2023-12-22T07:52:11.750Z,80.93
2023-12-22T07:55:15.026Z,80.27
2023-12-22T07:58:19.068Z,79.26
2023-12-22T08:01:22.042Z,78.42
2023-12-22T08:04:25.101Z,77.01
2023-12-22T08:07:28.021Z,76.30
2023-12-22T08:10:30.945Z,74.67
2023-12-22T08:13:34.092Z,71.21
2023-12-22T08:16:37.150Z,69.77
2023-12-22T08:19:45.807Z,70.06
2023-12-22T08:22:52.790Z,70.23
2023-12-22T08:25:59.113Z,72.15
2023-12-22T08:29:02.025Z,74.72
2023-12-22T08:32:05.412Z,79.38
2023-12-22T08:35:09.319Z,82.30
2023-12-22T08:38:14.654Z,83.99
2023-12-22T08:41:17.838Z,85.57
2023-12-22T08:44:20.975Z,85.94
2023-12-22T08:47:23.855Z,87.24
2023-12-22T08:50:27.125Z,87.98
2023-12-22T08:53:34.785Z,87.50
2023-12-22T08:56:38.254Z,86.84
2023-12-22T08:59:41.064Z,86.37
2023-12-22T09:02:44.090Z,86.11
2023-12-22T09:05:48.322Z,85.92
2023-12-22T09:08:51.590Z,85.89
2023-12-22T09:11:54.848Z,85.92
2023-12-22T09:14:59.460Z,86.07
2023-12-22T09:18:02.716Z,86.13
2023-12-22T09:21:05.603Z,85.92
2023-12-22T09:24:08.499Z,85.58
2023-12-22T09:27:11.472Z,85.18
2023-12-22T09:30:14.466Z,84.67
2023-12-22T09:33:17.768Z,84.34
2023-12-22T09:36:20.982Z,84.04
2023-12-22T09:39:23.960Z,83.63
2023-12-22T09:42:27.189Z,82.77
2023-12-22T09:45:32.108Z,81.06
2023-12-22T09:48:39.189Z,79.26
2023-12-22T09:51:44.149Z,79.76
2023-12-22T09:54:49.109Z,77.98
2023-12-22T09:57:53.411Z,76.47
2023-12-22T10:00:57.953Z,75.90
2023-12-22T10:04:01.138Z,75.55
2023-12-22T10:07:05.486Z,75.39
2023-12-22T10:10:09.703Z,75.63
2023-12-22T10:13:13.663Z,76.35
2023-12-22T10:16:16.685Z,76.49
2023-12-22T10:19:23.529Z,76.79
2023-12-22T10:22:26.596Z,76.22
2023-12-22T10:25:33.759Z,75.88
2023-12-22T10:28:36.759Z,75.23
2023-12-22T10:31:43.031Z,75.60
2023-12-22T10:34:46.021Z,75.01
2023-12-22T10:37:49.633Z,75.07
2023-12-22T10:40:52.842Z,75.81
2023-12-22T10:43:55.916Z,76.62
2023-12-22T10:46:59.557Z,77.03
2023-12-22T10:50:06.199Z,77.45
2023-12-22T10:53:09.181Z,77.01
2023-12-22T10:56:13.264Z,76.82
2023-12-22T10:59:24.761Z,76.38
2023-12-22T11:02:34.102Z,75.98
2023-12-22T11:05:38.183Z,74.91
2023-12-22T11:08:43.014Z,73.78
2023-12-22T11:11:47.604Z,73.83
2023-12-22T11:14:52.385Z,73.74
2023-12-22T11:17:57.947Z,73.96
2023-12-22T11:21:03.574Z,73.42
2023-12-22T11:24:08.166Z,73.34
2023-12-22T11:27:12.996Z,72.53
2023-12-22T11:30:16.325Z,72.32
2023-12-22T11:33:19.992Z,72.29
2023-12-22T11:36:24.397Z,71.50
2023-12-22T11:39:27.408Z,70.80
2023-12-22T11:42:39.643Z,71.46
2023-12-22T11:45:44.200Z,69.79
2023-12-22T11:48:51.675Z,69.34
2023-12-22T11:51:54.612Z,69.17
2023-12-22T11:54:58.023Z,68.88
2023-12-22T11:58:39.462Z,69.89
2023-12-22T12:01:42.646Z,70.50
2023-12-22T12:04:48.967Z,70.35
2023-12-22T12:07:52.440Z,70.30
2023-12-22T12:10:56.038Z,70.91
2023-12-22T12:14:12.923Z,71.19
2023-12-22T12:17:19.341Z,71.27
2023-12-22T12:20:23.465Z,71.19
2023-12-22T12:23:27.656Z,70.74
2023-12-22T12:26:30.910Z,71.03
2023-12-22T12:29:34.557Z,70.35
2023-12-22T12:32:37.868Z,69.36
2023-12-22T12:35:45.304Z,69.61
2023-12-22T12:39:09.737Z,67.61
2023-12-22T12:42:16.800Z,65.40
2023-12-22T12:45:27.322Z,65.55
2023-12-22T12:48:30.478Z,67.52
2023-12-22T12:51:39.017Z,68.15
2023-12-22T12:54:43.000Z,69.56
2023-12-22T12:57:46.001Z,70.43
2023-12-22T13:00:49.092Z,71.50
2023-12-22T13:04:26.154Z,72.34
2023-12-22T13:07:29.368Z,72.46
2023-12-22T13:10:33.544Z,72.94
2023-12-22T13:13:45.817Z,73.73
2023-12-22T13:16:48.782Z,74.23
2023-12-22T13:19:52.118Z,74.13
2023-12-22T13:22:56.227Z,73.49
2023-12-22T13:25:59.184Z,73.67
2023-12-22T13:29:02.460Z,73.08
2023-12-22T13:32:05.834Z,72.49
2023-12-22T13:35:10.053Z,72.98
2023-12-22T13:38:13.215Z,73.00
2023-12-22T13:41:20.434Z,72.47
2023-12-22T13:44:23.489Z,71.92
2023-12-22T13:47:28.141Z,71.66
2023-12-22T13:50:32.010Z,71.46
2023-12-22T13:53:36.896Z,70.73
2023-12-22T13:56:43.951Z,69.96
2023-12-22T13:59:47.154Z,69.34
2023-12-22T14:02:50.854Z,69.25
2023-12-22T14:05:54.579Z,69.46
2023-12-22T14:08:58.279Z,68.88
2023-12-22T14:12:05.645Z,69.06
2023-12-22T14:15:12.998Z,69.18
2023-12-22T14:18:15.948Z,68.79
2023-12-22T14:21:19.665Z,69.13
2023-12-22T14:24:22.535Z,69.42
2023-12-22T14:27:25.524Z,69.58
2023-12-22T14:30:28.575Z,69.45
2023-12-22T14:33:31.565Z,69.12
2023-12-22T14:36:34.480Z,69.36
2023-12-22T14:39:37.601Z,69.44
2023-12-22T14:42:40.502Z,69.20
2023-12-22T14:45:43.689Z,69.54
2023-12-22T14:48:46.793Z,70.02
2023-12-22T14:51:55.051Z,70.30
2023-12-22T14:54:58.307Z,70.72
2023-12-22T14:58:01.183Z,71.03
2023-12-22T15:01:04.415Z,70.88
2023-12-22T15:04:08.291Z,71.15
2023-12-22T15:07:11.382Z,71.70
2023-12-22T15:10:14.500Z,71.72
2023-12-22T15:13:17.548Z,72.02
2023-12-22T15:16:22.242Z,72.45
2023-12-22T15:19:25.929Z,72.69
2023-12-22T15:22:28.869Z,73.30
2023-12-22T15:25:31.769Z,74.23
2023-12-22T15:28:35.066Z,74.34
2023-12-22T15:31:38.805Z,74.92
2023-12-22T15:34:45.091Z,74.87
2023-12-22T15:37:48.004Z,74.81
2023-12-22T15:40:51.109Z,75.95
2023-12-22T15:43:54.200Z,77.74
2023-12-22T15:46:57.105Z,77.55
2023-12-22T15:50:00.092Z,77.39
2023-12-22T15:53:03.196Z,77.50
2023-12-22T15:56:07.469Z,77.84
2023-12-22T15:59:12.528Z,77.26
2023-12-22T16:02:17.099Z,77.37
2023-12-22T16:05:20.410Z,77.90
2023-12-22T16:08:23.933Z,78.64
2023-12-22T16:11:26.792Z,78.79
2023-12-22T16:14:30.133Z,79.13
2023-12-22T16:17:33.021Z,78.69
2023-12-22T16:20:36.774Z,79.11
2023-12-22T16:23:39.800Z,78.99
2023-12-22T16:26:44.612Z,79.07
2023-12-22T16:29:48.581Z,79.12
2023-12-22T16:32:52.151Z,79.30
2023-12-22T16:35:55.976Z,79.35
2023-12-22T16:38:59.111Z,79.73
2023-12-22T16:42:02.190Z,79.77
2023-12-22T16:45:07.418Z,79.62
2023-12-22T16:48:10.319Z,79.52
2023-12-22T16:51:16.091Z,79.36
2023-12-22T16:54:18.959Z,79.11
2023-12-22T16:57:22.047Z,79.00
2023-12-22T17:00:26.787Z,78.83
2023-12-22T17:03:30.382Z,78.87
2023-12-22T17:06:34.712Z,78.79
2023-12-22T17:09:37.967Z,78.90
2023-12-22T17:12:40.919Z,79.29
2023-12-22T17:15:44.156Z,79.09
2023-12-22T17:18:47.267Z,79.15
2023-12-22T17:21:50.133Z,79.29
2023-12-22T17:24:55.597Z,79.06
2023-12-22T17:27:58.605Z,79.05
2023-12-22T17:31:03.559Z,78.88
2023-12-22T17:34:07.649Z,78.68
2023-12-22T17:37:11.605Z,78.46
2023-12-22T17:40:14.698Z,78.18
2023-12-22T17:43:18.186Z,77.74
2023-12-22T17:46:21.073Z,76.67
2023-12-22T17:49:23.939Z,76.40
2023-12-22T17:52:26.755Z,76.49
2023-12-22T17:55:29.623Z,76.59
2023-12-22T17:58:32.570Z,76.70
2023-12-22T18:01:35.567Z,76.84
2023-12-22T18:04:39.230Z,77.28
2023-12-22T18:07:42.086Z,77.72
2023-12-22T18:10:45.573Z,77.51
2023-12-22T18:13:53.358Z,77.59
2023-12-22T18:16:56.347Z,77.42
2023-12-22T18:20:00.161Z,77.50
2023-12-22T18:23:03.493Z,77.75
2023-12-22T18:26:06.850Z,78.10
2023-12-22T18:29:10.022Z,77.92
2023-12-22T18:33:04.777Z,78.42
2023-12-22T18:36:08.436Z,78.87
2023-12-22T18:39:13.046Z,78.94
2023-12-22T18:42:15.899Z,79.28
2023-12-22T18:45:18.864Z,79.40
2023-12-22T18:48:21.904Z,79.26
2023-12-22T18:51:24.929Z,78.91
2023-12-22T18:54:27.803Z,78.80
2023-12-22T18:57:30.898Z,79.15
2023-12-22T19:00:33.831Z,79.41
2023-12-22T19:03:37.336Z,79.53
2023-12-22T19:06:40.442Z,79.96
2023-12-22T19:09:46.455Z,80.28
2023-12-22T19:12:50.951Z,80.07
2023-12-22T19:15:54.754Z,80.49
2023-12-22T19:18:57.684Z,80.49
2023-12-22T19:22:01.820Z,80.54
2023-12-22T19:25:04.976Z,80.48
2023-12-22T19:28:07.958Z,80.36
2023-12-22T19:31:10.912Z,80.34
2023-12-22T19:34:13.928Z,80.02
2023-12-22T19:37:19.541Z,80.10
2023-12-22T19:40:23.026Z,79.91
2023-12-22T19:43:26.145Z,79.63
2023-12-22T19:46:29.224Z,79.44
2023-12-22T19:49:32.437Z,79.49
2023-12-22T19:52:35.950Z,79.52
2023-12-22T19:55:39.256Z,79.46
2023-12-22T19:58:42.249Z,79.85
2023-12-22T20:01:46.237Z,79.83
2023-12-22T20:04:49.484Z,79.91
2023-12-22T20:07:52.889Z,80.07
2023-12-22T20:10:56.266Z,80.30
2023-12-22T20:14:00.034Z,80.54
2023-12-22T20:17:04.979Z,80.56
2023-12-22T20:20:10.595Z,80.90
2023-12-22T20:23:13.988Z,81.16
2023-12-22T20:26:17.183Z,81.23
2023-12-22T20:29:22.819Z,81.27
2023-12-22T20:32:27.833Z,81.16
2023-12-22T20:35:30.916Z,81.25
2023-12-22T20:38:34.650Z,81.36
2023-12-22T20:41:37.988Z,81.23
2023-12-22T20:44:41.223Z,81.38
2023-12-22T20:47:45.961Z,81.41
2023-12-22T20:50:49.559Z,81.29
2023-12-22T20:53:52.532Z,81.17
2023-12-22T20:56:55.526Z,81.13
2023-12-22T20:59:58.760Z,81.30
2023-12-22T21:03:02.188Z,81.44
2023-12-22T21:06:07.431Z,81.31
2023-12-22T21:09:10.597Z,81.36
2023-12-22T21:12:13.561Z,81.39
2023-12-22T21:15:16.606Z,81.19
2023-12-22T21:18:19.534Z,81.34
2023-12-22T21:21:22.914Z,81.77
2023-12-22T21:24:25.842Z,82.13
2023-12-22T21:27:28.789Z,82.12
2023-12-22T21:30:32.681Z,82.56
2023-12-22T21:33:37.877Z,82.32
2023-12-22T21:36:40.949Z,82.76
2023-12-22T21:39:43.989Z,83.14
2023-12-22T21:42:47.644Z,82.86
2023-12-22T21:45:51.158Z,82.73
2023-12-22T21:48:54.121Z,83.37
2023-12-22T21:51:57.028Z,83.41
2023-12-22T21:55:00.773Z,83.10
2023-12-22T21:58:03.926Z,82.97
2023-12-22T22:01:06.792Z,83.48
2023-12-22T22:04:09.735Z,83.64
2023-12-22T22:07:13.837Z,83.41
2023-12-22T22:10:16.758Z,84.52
2023-12-22T22:13:19.689Z,84.02
2023-12-22T22:16:22.629Z,83.69
2023-12-22T22:19:25.701Z,83.81
2023-12-22T22:22:29.672Z,84.11
2023-12-22T22:25:34.592Z,84.19
2023-12-22T22:28:41.969Z,83.90
2023-12-22T22:31:44.952Z,84.44
2023-12-22T22:34:47.869Z,84.99
2023-12-22T22:37:51.025Z,85.48
2023-12-22T22:40:54.106Z,84.93
2023-12-22T22:43:57.076Z,84.73
2023-12-22T22:46:59.976Z,84.61
2023-12-22T22:50:03.588Z,84.46
2023-12-22T22:53:10.466Z,83.66
2023-12-22T22:56:13.528Z,83.32
2023-12-22T22:59:16.649Z,83.42
2023-12-22T23:02:19.626Z,83.35
2023-12-22T23:05:23.274Z,83.05
2023-12-22T23:08:26.258Z,82.84
2023-12-22T23:11:29.380Z,82.84
2023-12-22T23:14:32.263Z,82.54
2023-12-22T23:17:35.765Z,82.32
2023-12-22T23:20:39.648Z,82.42
2023-12-22T23:23:42.578Z,82.56
2023-12-22T23:26:45.494Z,82.89
2023-12-22T23:29:48.436Z,83.11
2023-12-22T23:32:51.390Z,83.05
2023-12-22T23:35:54.414Z,83.12
2023-12-22T23:38:57.306Z,83.23
2023-12-22T23:42:00.222Z,83.76
2023-12-22T23:45:04.619Z,83.72
2023-12-22T23:48:07.991Z,84.06
2023-12-22T23:51:13.029Z,83.99
2023-12-22T23:54:15.975Z,84.34
2023-12-22T23:57:18.805Z,84.32
